sensor_id;sensor_type;location;lat;lon;timestamp;pressure;altitude;pressure_sealevel;temperature;humidity
11314;BME280;5712;48.858;9.206;2023-05-23T00:01:18;97943.50;;;17.44;100.00
11314;BME280;5712;48.858;9.206;2023-05-23T00:03:46;97948.47;;;17.39;100.00
11314;BME280;5712;48.858;9.206;2023-05-23T00:06:18;97943.13;;;17.39;100.00
11314;BME280;5712;48.858;9.206;2023-05-23T00:08:46;97950.84;;;17.32;100.00
11314;BME280;5712;48.858;9.206;2023-05-23T00:11:12;97950.19;;;17.30;100.00
11314;BME280;5712;48.858;9.206;2023-05-23T00:13:40;97951.03;;;17.31;100.00
11314;BME280;5712;48.858;9.206;2023-05-23T00:16:08;97949.09;;;17.23;100.00
11314;BME280;5712;48.858;9.206;2023-05-23T00:18:35;97948.44;;;17.21;100.00
11314;BME280;5712;48.858;9.206;2023-05-23T00:21:01;97948.63;;;17.10;100.00
11314;BME280;5712;48.858;9.206;2023-05-23T00:23:30;97957.66;;;17.09;100.00
11314;BME280;5712;48.858;9.206;2023-05-23T00:25:58;97945.13;;;17.10;100.00
11314;BME280;5712;48.858;9.206;2023-05-23T00:28:24;97943.59;;;17.07;100.00
11314;BME280;5712;48.858;9.206;2023-05-23T00:30:51;97945.56;;;17.05;100.00
11314;BME280;5712;48.858;9.206;2023-05-23T00:33:19;97952.19;;;17.01;100.00
11314;BME280;5712;48.858;9.206;2023-05-23T00:35:46;97954.59;;;17.04;100.00
11314;BME280;5712;48.858;9.206;2023-05-23T00:38:13;97961.75;;;17.04;100.00
11314;BME280;5712;48.858;9.206;2023-05-23T00:40:40;97956.53;;;17.02;100.00
11314;BME280;5712;48.858;9.206;2023-05-23T00:43:06;97965.31;;;16.95;100.00
11314;BME280;5712;48.858;9.206;2023-05-23T00:45:33;97956.59;;;16.93;100.00
11314;BME280;5712;48.858;9.206;2023-05-23T00:48:00;97961.41;;;16.89;100.00
11314;BME280;5712;48.858;9.206;2023-05-23T00:50:29;97959.91;;;16.77;100.00
11314;BME280;5712;48.858;9.206;2023-05-23T00:52:56;97958.09;;;16.78;100.00
11314;BME280;5712;48.858;9.206;2023-05-23T00:55:25;97957.84;;;16.71;100.00
11314;BME280;5712;48.858;9.206;2023-05-23T00:57:53;97963.19;;;16.71;100.00
11314;BME280;5712;48.858;9.206;2023-05-23T01:00:22;97965.16;;;16.69;100.00
11314;BME280;5712;48.858;9.206;2023-05-23T01:02:49;97969.91;;;16.75;100.00
11314;BME280;5712;48.858;9.206;2023-05-23T01:05:16;97963.19;;;16.71;100.00
11314;BME280;5712;48.858;9.206;2023-05-23T01:07:45;97969.91;;;16.75;100.00
11314;BME280;5712;48.858;9.206;2023-05-23T01:10:12;97972.72;;;16.74;100.00
11314;BME280;5712;48.858;9.206;2023-05-23T01:12:44;97967.38;;;16.74;100.00
11314;BME280;5712;48.858;9.206;2023-05-23T01:15:14;97972.72;;;16.74;100.00
11314;BME280;5712;48.858;9.206;2023-05-23T01:17:46;97976.69;;;16.70;100.00
11314;BME280;5712;48.858;9.206;2023-05-23T01:20:20;97975.56;;;16.72;100.00
11314;BME280;5712;48.858;9.206;2023-05-23T01:23:09;97975.78;;;16.79;100.00
11314;BME280;5712;48.858;9.206;2023-05-23T01:25:46;97977.25;;;16.73;100.00
11314;BME280;5712;48.858;9.206;2023-05-23T01:28:20;97973.31;;;16.68;100.00
11314;BME280;5712;48.858;9.206;2023-05-23T01:30:52;97970.50;;;16.69;100.00
11314;BME280;5712;48.858;9.206;2023-05-23T01:33:24;97974.84;;;16.70;100.00
11314;BME280;5712;48.858;9.206;2023-05-23T01:35:51;97970.22;;;16.72;100.00
11314;BME280;5712;48.858;9.206;2023-05-23T01:38:18;97965.13;;;16.79;100.00
11314;BME280;5712;48.858;9.206;2023-05-23T01:40:44;97970.72;;;16.85;100.00
11314;BME280;5712;48.858;9.206;2023-05-23T01:43:11;97968.06;;;16.85;100.00
11314;BME280;5712;48.858;9.206;2023-05-23T01:45:39;97968.72;;;16.87;100.00
11314;BME280;5712;48.858;9.206;2023-05-23T01:48:06;97973.47;;;16.93;100.00
11314;BME280;5712;48.858;9.206;2023-05-23T01:50:33;97960.81;;;16.95;100.00
11314;BME280;5712;48.858;9.206;2023-05-23T01:53:01;97973.16;;;16.96;100.00
11314;BME280;5712;48.858;9.206;2023-05-23T01:55:28;97972.41;;;16.86;100.00
11314;BME280;5712;48.858;9.206;2023-05-23T01:57:56;97968.06;;;16.85;100.00
11314;BME280;5712;48.858;9.206;2023-05-23T02:00:23;97974.06;;;16.87;100.00
11314;BME280;5712;48.858;9.206;2023-05-23T02:02:54;97978.00;;;16.83;100.00
11314;BME280;5712;48.858;9.206;2023-05-23T02:05:20;97981.41;;;16.85;100.00
11314;BME280;5712;48.858;9.206;2023-05-23T02:07:47;97973.66;;;16.82;100.00
11314;BME280;5712;48.858;9.206;2023-05-23T02:10:13;97972.59;;;16.75;100.00
11314;BME280;5712;48.858;9.206;2023-05-23T02:12:40;97973.59;;;16.74;100.00
11314;BME280;5712;48.858;9.206;2023-05-23T02:15:07;97971.91;;;16.73;100.00
11314;BME280;5712;48.858;9.206;2023-05-23T02:17:34;97981.13;;;16.79;100.00
11314;BME280;5712;48.858;9.206;2023-05-23T02:20:08;97973.81;;;16.81;100.00
11314;BME280;5712;48.858;9.206;2023-05-23T02:22:35;97982.75;;;16.89;100.00
11314;BME280;5712;48.858;9.206;2023-05-23T02:25:01;97985.81;;;16.94;100.00
11314;BME280;5712;48.858;9.206;2023-05-23T02:27:28;97977.09;;;17.02;100.00
11314;BME280;5712;48.858;9.206;2023-05-23T02:29:54;97979.22;;;17.16;100.00
11314;BME280;5712;48.858;9.206;2023-05-23T02:32:21;97976.41;;;17.17;100.00
11314;BME280;5712;48.858;9.206;2023-05-23T02:34:47;97983.16;;;17.21;100.00
11314;BME280;5712;48.858;9.206;2023-05-23T02:37:17;97973.28;;;17.22;100.00
11314;BME280;5712;48.858;9.206;2023-05-23T02:39:43;97979.88;;;17.27;100.00
11314;BME280;5712;48.858;9.206;2023-05-23T02:42:10;97982.22;;;17.30;100.00
11314;BME280;5712;48.858;9.206;2023-05-23T02:44:36;97982.22;;;17.30;100.00
11314;BME280;5712;48.858;9.206;2023-05-23T02:47:03;97991.25;;;17.29;100.00
11314;BME280;5712;48.858;9.206;2023-05-23T02:49:30;97988.09;;;17.34;100.00
11314;BME280;5712;48.858;9.206;2023-05-23T02:51:56;97987.56;;;17.30;100.00
11314;BME280;5712;48.858;9.206;2023-05-23T02:54:24;97990.16;;;17.22;100.00
11314;BME280;5712;48.858;9.206;2023-05-23T02:56:50;97993.25;;;17.27;100.00
11314;BME280;5712;48.858;9.206;2023-05-23T02:59:19;97987.91;;;17.27;100.00
11314;BME280;5712;48.858;9.206;2023-05-23T03:01:48;97992.25;;;17.28;100.00
11314;BME280;5712;48.858;9.206;2023-05-23T03:04:14;98000.53;;;17.25;100.00
11314;BME280;5712;48.858;9.206;2023-05-23T03:06:42;98000.84;;;17.22;100.00
11314;BME280;5712;48.858;9.206;2023-05-23T03:09:09;98006.41;;;17.29;100.00
11314;BME280;5712;48.858;9.206;2023-05-23T03:11:37;98005.25;;;17.41;100.00
11314;BME280;5712;48.858;9.206;2023-05-23T03:14:03;98010.91;;;17.38;100.00
11314;BME280;5712;48.858;9.206;2023-05-23T03:16:30;98003.91;;;17.27;100.00
11314;BME280;5712;48.858;9.206;2023-05-23T03:18:56;98003.31;;;17.33;100.00
11314;BME280;5712;48.858;9.206;2023-05-23T03:21:23;98013.44;;;17.30;100.00
11314;BME280;5712;48.858;9.206;2023-05-23T03:23:50;98013.16;;;17.33;100.00
11314;BME280;5712;48.858;9.206;2023-05-23T03:26:16;98014.00;;;17.33;100.00
11314;BME280;5712;48.858;9.206;2023-05-23T03:28:44;98023.31;;;17.29;100.00
11314;BME280;5712;48.858;9.206;2023-05-23T03:31:10;98016.28;;;17.28;100.00
11314;BME280;5712;48.858;9.206;2023-05-23T03:33:37;98015.97;;;17.31;100.00
11314;BME280;5712;48.858;9.206;2023-05-23T03:36:03;98012.31;;;17.32;100.00
11314;BME280;5712;48.858;9.206;2023-05-23T03:38:30;98022.75;;;17.26;100.00
11314;BME280;5712;48.858;9.206;2023-05-23T03:40:57;98014.06;;;17.24;100.00
11314;BME280;5712;48.858;9.206;2023-05-23T03:43:23;98016.81;;;17.32;100.00
11314;BME280;5712;48.858;9.206;2023-05-23T03:45:51;98018.25;;;17.26;100.00
11314;BME280;5712;48.858;9.206;2023-05-23T03:48:18;98016.88;;;17.22;100.00
11314;BME280;5712;48.858;9.206;2023-05-23T03:50:45;98020.84;;;17.18;100.00
11314;BME280;5712;48.858;9.206;2023-05-23T03:53:11;98016.09;;;17.12;100.00
11314;BME280;5712;48.858;9.206;2023-05-23T03:55:38;98024.25;;;17.11;100.00
11314;BME280;5712;48.858;9.206;2023-05-23T03:58:04;98016.41;;;17.09;100.00
11314;BME280;5712;48.858;9.206;2023-05-23T04:00:33;98020.28;;;17.15;100.00
11314;BME280;5712;48.858;9.206;2023-05-23T04:03:01;98017.75;;;17.13;100.00
11314;BME280;5712;48.858;9.206;2023-05-23T04:05:28;98029.97;;;17.16;100.00
11314;BME280;5712;48.858;9.206;2023-05-23T04:07:55;98025.78;;;17.13;100.00
11314;BME280;5712;48.858;9.206;2023-05-23T04:10:21;98037.44;;;17.12;100.00
11314;BME280;5712;48.858;9.206;2023-05-23T04:12:48;98034.50;;;17.15;100.00
11314;BME280;5712;48.858;9.206;2023-05-23T04:15:15;98037.16;;;17.15;100.00
11314;BME280;5712;48.858;9.206;2023-05-23T04:17:42;98028.97;;;17.17;100.00
11314;BME280;5712;48.858;9.206;2023-05-23T04:20:11;98036.03;;;17.18;100.00
11314;BME280;5712;48.858;9.206;2023-05-23T04:22:37;98032.91;;;17.22;100.00
11314;BME280;5712;48.858;9.206;2023-05-23T04:25:05;98033.91;;;17.21;100.00
11314;BME280;5712;48.858;9.206;2023-05-23T04:27:31;98038.53;;;17.19;100.00
11314;BME280;5712;48.858;9.206;2023-05-23T04:29:58;98039.38;;;17.20;100.00
11314;BME280;5712;48.858;9.206;2023-05-23T04:32:25;98034.88;;;17.20;100.00
11314;BME280;5712;48.858;9.206;2023-05-23T04:34:51;98035.44;;;17.24;100.00
11314;BME280;5712;48.858;9.206;2023-05-23T04:37:19;98043.06;;;17.19;100.00
11314;BME280;5712;48.858;9.206;2023-05-23T04:39:50;98034.88;;;17.20;100.00
11314;BME280;5712;48.858;9.206;2023-05-23T04:42:17;98041.19;;;17.19;100.00
11314;BME280;5712;48.858;9.206;2023-05-23T04:44:48;98050.28;;;17.26;100.00
11314;BME280;5712;48.858;9.206;2023-05-23T04:47:15;98059.00;;;17.38;100.00
11314;BME280;5712;48.858;9.206;2023-05-23T04:49:41;98056.44;;;17.36;100.00
11314;BME280;5712;48.858;9.206;2023-05-23T04:52:08;98063.78;;;17.34;100.00
11314;BME280;5712;48.858;9.206;2023-05-23T04:54:37;98064.06;;;17.31;100.00
11314;BME280;5712;48.858;9.206;2023-05-23T04:57:04;98056.34;;;17.28;100.00
11314;BME280;5712;48.858;9.206;2023-05-23T04:59:31;98057.28;;;17.37;100.00
11314;BME280;5712;48.858;9.206;2023-05-23T05:01:57;98059.25;;;17.35;100.00
11314;BME280;5712;48.858;9.206;2023-05-23T05:04:24;98059.69;;;17.40;100.00
11314;BME280;5712;48.858;9.206;2023-05-23T05:06:50;98068.22;;;17.43;100.00
11314;BME280;5712;48.858;9.206;2023-05-23T05:09:17;98073.09;;;17.57;100.00
11314;BME280;5712;48.858;9.206;2023-05-23T05:11:45;98067.75;;;17.57;100.00
11314;BME280;5712;48.858;9.206;2023-05-23T05:14:11;98061.09;;;17.61;100.00
11314;BME280;5712;48.858;9.206;2023-05-23T05:16:38;98068.09;;;17.62;100.00
11314;BME280;5712;48.858;9.206;2023-05-23T05:19:04;98074.31;;;17.63;100.00
11314;BME280;5712;48.858;9.206;2023-05-23T05:21:34;98077.13;;;17.61;100.00
11314;BME280;5712;48.858;9.206;2023-05-23T05:24:01;98072.38;;;17.55;100.00
11314;BME280;5712;48.858;9.206;2023-05-23T05:26:27;98082.25;;;17.55;100.00
11314;BME280;5712;48.858;9.206;2023-05-23T05:28:55;98081.66;;;17.61;100.00
11314;BME280;5712;48.858;9.206;2023-05-23T05:31:22;98079.25;;;17.75;100.00
11314;BME280;5712;48.858;9.206;2023-05-23T05:33:49;98071.94;;;17.77;100.00
11314;BME280;5712;48.858;9.206;2023-05-23T05:36:16;98077.31;;;17.77;100.00
11314;BME280;5712;48.858;9.206;2023-05-23T05:38:42;98072.69;;;17.87;100.00
11314;BME280;5712;48.858;9.206;2023-05-23T05:41:09;98078.28;;;17.94;100.00
11314;BME280;5712;48.858;9.206;2023-05-23T05:43:35;98072.09;;;17.93;100.00
11314;BME280;5712;48.858;9.206;2023-05-23T05:46:03;98067.50;;;18.03;100.00
11314;BME280;5712;48.858;9.206;2023-05-23T05:48:31;98071.97;;;18.12;100.00
11314;BME280;5712;48.858;9.206;2023-05-23T05:50:57;98082.03;;;18.18;100.00
11314;BME280;5712;48.858;9.206;2023-05-23T05:53:25;98082.03;;;18.18;100.00
11314;BME280;5712;48.858;9.206;2023-05-23T05:55:52;98084.88;;;18.17;100.00
11314;BME280;5712;48.858;9.206;2023-05-23T05:58:19;98082.47;;;18.14;100.00
11314;BME280;5712;48.858;9.206;2023-05-23T06:00:46;98082.34;;;18.15;100.00
11314;BME280;5712;48.858;9.206;2023-05-23T06:03:14;98086.00;;;18.14;100.00
11314;BME280;5712;48.858;9.206;2023-05-23T06:05:43;98075.16;;;18.16;100.00
11314;BME280;5712;48.858;9.206;2023-05-23T06:08:09;98082.88;;;18.19;100.00
11314;BME280;5712;48.858;9.206;2023-05-23T06:10:36;98087.88;;;18.31;100.00
11314;BME280;5712;48.858;9.206;2023-05-23T06:13:03;98083.78;;;18.45;100.00
11314;BME280;5712;48.858;9.206;2023-05-23T06:15:30;98080.66;;;18.49;100.00
11314;BME280;5712;48.858;9.206;2023-05-23T06:17:56;98082.75;;;18.63;100.00
11314;BME280;5712;48.858;9.206;2023-05-23T06:20:24;98087.78;;;18.66;100.00
11314;BME280;5712;48.858;9.206;2023-05-23T06:22:50;98081.44;;;18.67;100.00
11314;BME280;5712;48.858;9.206;2023-05-23T06:25:17;98084.84;;;18.77;100.00
11314;BME280;5712;48.858;9.206;2023-05-23T06:27:43;98075.81;;;18.78;100.00
11314;BME280;5712;48.858;9.206;2023-05-23T06:30:11;98093.88;;;18.76;100.00
11314;BME280;5712;48.858;9.206;2023-05-23T06:32:39;98085.59;;;18.87;100.00
11314;BME280;5712;48.858;9.206;2023-05-23T06:35:06;98088.56;;;18.84;100.00
11314;BME280;5712;48.858;9.206;2023-05-23T06:37:34;98099.44;;;18.83;100.00
11314;BME280;5712;48.858;9.206;2023-05-23T06:40:01;98110.56;;;18.70;100.00
11314;BME280;5712;48.858;9.206;2023-05-23T06:42:30;98117.78;;;18.52;100.00
11314;BME280;5712;48.858;9.206;2023-05-23T06:44:57;98116.88;;;18.44;100.00
11314;BME280;5712;48.858;9.206;2023-05-23T06:47:23;98122.38;;;18.42;100.00
11314;BME280;5712;48.858;9.206;2023-05-23T06:49:50;98123.84;;;18.37;100.00
11314;BME280;5712;48.858;9.206;2023-05-23T06:52:17;98126.06;;;18.41;100.00
11314;BME280;5712;48.858;9.206;2023-05-23T06:54:47;98128.75;;;18.41;100.00
11314;BME280;5712;48.858;9.206;2023-05-23T06:57:13;98135.31;;;18.47;100.00
11314;BME280;5712;48.858;9.206;2023-05-23T06:59:40;98134.47;;;18.46;100.00
11314;BME280;5712;48.858;9.206;2023-05-23T07:02:06;98139.38;;;18.33;100.00
11314;BME280;5712;48.858;9.206;2023-05-23T07:04:33;98137.50;;;18.16;100.00
11314;BME280;5712;48.858;9.206;2023-05-23T07:06:59;98139.78;;;18.11;100.00
11314;BME280;5712;48.858;9.206;2023-05-23T07:09:26;98140.78;;;18.10;100.00
11314;BME280;5712;48.858;9.206;2023-05-23T07:11:54;98142.00;;;17.98;100.00
11314;BME280;5712;48.858;9.206;2023-05-23T07:14:20;98148.34;;;17.97;100.00
11314;BME280;5712;48.858;9.206;2023-05-23T07:16:47;98154.63;;;17.88;100.00
11314;BME280;5712;48.858;9.206;2023-05-23T07:19:13;98152.56;;;17.82;99.87
11314;BME280;5712;48.858;9.206;2023-05-23T07:21:40;98154.38;;;17.82;98.78
11314;BME280;5712;48.858;9.206;2023-05-23T07:24:06;98150.09;;;17.71;98.39
11314;BME280;5712;48.858;9.206;2023-05-23T07:26:33;98155.81;;;17.76;98.73
11314;BME280;5712;48.858;9.206;2023-05-23T07:29:01;98150.22;;;17.70;97.75
11314;BME280;5712;48.858;9.206;2023-05-23T07:31:27;98144.81;;;17.79;97.38
11314;BME280;5712;48.858;9.206;2023-05-23T07:33:54;98148.97;;;17.91;95.64
11314;BME280;5712;48.858;9.206;2023-05-23T07:36:20;98139.06;;;18.01;94.11
11314;BME280;5712;48.858;9.206;2023-05-23T07:38:47;98144.53;;;18.17;93.81
11314;BME280;5712;48.858;9.206;2023-05-23T07:41:14;98144.72;;;18.33;92.81
11314;BME280;5712;48.858;9.206;2023-05-23T07:43:40;98136.25;;;18.55;91.89
11314;BME280;5712;48.858;9.206;2023-05-23T07:46:08;98133.22;;;18.58;89.18
11314;BME280;5712;48.858;9.206;2023-05-23T07:48:35;98136.13;;;18.65;88.67
11314;BME280;5712;48.858;9.206;2023-05-23T07:51:01;98140.41;;;18.75;87.23
11314;BME280;5712;48.858;9.206;2023-05-23T07:53:28;98138.91;;;18.81;86.81
11314;BME280;5712;48.858;9.206;2023-05-23T07:55:54;98141.91;;;19.03;85.69
11314;BME280;5712;48.858;9.206;2023-05-23T07:58:21;98144.44;;;19.22;84.01
11314;BME280;5712;48.858;9.206;2023-05-23T08:00:48;98132.59;;;19.15;81.72
11314;BME280;5712;48.858;9.206;2023-05-23T08:03:16;98145.31;;;19.13;81.83
11314;BME280;5712;48.858;9.206;2023-05-23T08:05:43;98138.97;;;19.14;82.10
11314;BME280;5712;48.858;9.206;2023-05-23T08:08:10;98150.47;;;19.32;82.73
11314;BME280;5712;48.858;9.206;2023-05-23T08:10:36;98150.69;;;19.39;81.43
11314;BME280;5712;48.858;9.206;2023-05-23T08:13:04;98138.34;;;19.54;79.87
11314;BME280;5712;48.858;9.206;2023-05-23T08:15:31;98147.22;;;19.46;78.74
11314;BME280;5712;48.858;9.206;2023-05-23T08:17:57;98156.47;;;19.26;79.48
11314;BME280;5712;48.858;9.206;2023-05-23T08:20:26;98156.03;;;19.13;79.61
11314;BME280;5712;48.858;9.206;2023-05-23T08:22:56;98164.66;;;19.25;81.79
11314;BME280;5712;48.858;9.206;2023-05-23T08:25:23;98156.06;;;19.39;79.77
11314;BME280;5712;48.858;9.206;2023-05-23T08:27:49;98161.84;;;19.26;79.07
11314;BME280;5712;48.858;9.206;2023-05-23T08:30:16;98158.00;;;19.29;79.12
11314;BME280;5712;48.858;9.206;2023-05-23T08:32:47;98165.75;;;19.14;79.25
11314;BME280;5712;48.858;9.206;2023-05-23T08:35:13;98160.72;;;19.11;79.21
11314;BME280;5712;48.858;9.206;2023-05-23T08:37:41;98171.44;;;19.11;78.93
11314;BME280;5712;48.858;9.206;2023-05-23T08:40:13;98168.88;;;19.27;79.21
11314;BME280;5712;48.858;9.206;2023-05-23T08:42:40;98174.78;;;19.13;79.35
11314;BME280;5712;48.858;9.206;2023-05-23T08:45:08;98169.94;;;19.09;79.58
11314;BME280;5712;48.858;9.206;2023-05-23T08:47:36;98178.78;;;19.27;78.90
11314;BME280;5712;48.858;9.206;2023-05-23T08:50:05;98167.31;;;19.42;76.75
11314;BME280;5712;48.858;9.206;2023-05-23T08:52:32;98175.00;;;19.45;76.37
11314;BME280;5712;48.858;9.206;2023-05-23T08:55:01;98173.72;;;19.57;75.77
11314;BME280;5712;48.858;9.206;2023-05-23T08:57:28;98181.75;;;19.49;74.64
11314;BME280;5712;48.858;9.206;2023-05-23T08:59:55;98172.84;;;19.49;73.98
11314;BME280;5712;48.858;9.206;2023-05-23T09:02:23;98181.75;;;19.49;74.52
11314;BME280;5712;48.858;9.206;2023-05-23T09:04:51;98163.28;;;19.80;73.34
11314;BME280;5712;48.858;9.206;2023-05-23T09:07:18;98181.53;;;20.18;72.28
11314;BME280;5712;48.858;9.206;2023-05-23T09:09:45;98175.28;;;20.09;71.10
11314;BME280;5712;48.858;9.206;2023-05-23T09:12:13;98178.16;;;20.16;70.63
11314;BME280;5712;48.858;9.206;2023-05-23T09:14:41;98172.88;;;19.98;70.36
11314;BME280;5712;48.858;9.206;2023-05-23T09:17:10;98188.72;;;20.09;71.56
11314;BME280;5712;48.858;9.206;2023-05-23T09:19:40;98175.59;;;20.06;69.67
11314;BME280;5712;48.858;9.206;2023-05-23T09:22:07;98180.34;;;19.79;70.89
11314;BME280;5712;48.858;9.206;2023-05-23T09:24:33;98189.53;;;19.68;71.75
11314;BME280;5712;48.858;9.206;2023-05-23T09:27:01;98191.66;;;19.57;71.69
11314;BME280;5712;48.858;9.206;2023-05-23T09:29:29;98194.13;;;19.50;72.21
11314;BME280;5712;48.858;9.206;2023-05-23T09:31:59;98201.66;;;19.21;72.42
11314;BME280;5712;48.858;9.206;2023-05-23T09:34:26;98199.22;;;19.28;73.30
11314;BME280;5712;48.858;9.206;2023-05-23T09:36:54;98197.94;;;19.40;72.64
11314;BME280;5712;48.858;9.206;2023-05-23T09:39:21;98189.94;;;19.48;71.80
11314;BME280;5712;48.858;9.206;2023-05-23T09:41:47;98197.47;;;19.44;71.72
11314;BME280;5712;48.858;9.206;2023-05-23T09:44:21;98201.75;;;19.29;71.87
11314;BME280;5712;48.858;9.206;2023-05-23T09:46:50;98198.44;;;19.35;71.92
11314;BME280;5712;48.858;9.206;2023-05-23T09:49:17;98196.59;;;19.18;71.69
11314;BME280;5712;48.858;9.206;2023-05-23T09:51:56;98197.31;;;19.20;71.80
11314;BME280;5712;48.858;9.206;2023-05-23T09:54:23;98196.91;;;19.15;71.95
11314;BME280;5712;48.858;9.206;2023-05-23T09:56:51;98204.94;;;19.15;72.44
11314;BME280;5712;48.858;9.206;2023-05-23T09:59:20;98201.56;;;19.31;71.09
11314;BME280;5712;48.858;9.206;2023-05-23T10:01:54;98202.81;;;19.44;70.91
11314;BME280;5712;48.858;9.206;2023-05-23T10:04:22;98197.47;;;19.44;70.21
11314;BME280;5712;48.858;9.206;2023-05-23T10:06:55;98199.78;;;19.39;71.02
11314;BME280;5712;48.858;9.206;2023-05-23T10:09:25;98199.22;;;19.61;70.63
11314;BME280;5712;48.858;9.206;2023-05-23T10:12:31;98188.09;;;19.90;68.74
11314;BME280;5712;48.858;9.206;2023-05-23T10:15:03;98180.63;;;20.01;67.60
11314;BME280;5712;48.858;9.206;2023-05-23T10:17:40;98182.69;;;20.15;67.05
11314;BME280;5712;48.858;9.206;2023-05-23T10:20:10;98179.69;;;20.26;65.90
11314;BME280;5712;48.858;9.206;2023-05-23T10:22:41;98181.56;;;20.42;65.59
11314;BME280;5712;48.858;9.206;2023-05-23T10:25:10;98177.06;;;20.50;64.46
11314;BME280;5712;48.858;9.206;2023-05-23T10:27:38;98170.47;;;20.45;64.48
11314;BME280;5712;48.858;9.206;2023-05-23T10:30:06;98185.06;;;20.26;64.47
11314;BME280;5712;48.858;9.206;2023-05-23T10:32:37;98184.50;;;20.07;64.88
11314;BME280;5712;48.858;9.206;2023-05-23T10:35:11;98180.91;;;19.90;64.30
11314;BME280;5712;48.858;9.206;2023-05-23T10:37:45;98171.50;;;19.94;64.35
11314;BME280;5712;48.858;9.206;2023-05-23T10:40:23;98179.25;;;19.97;64.54
11314;BME280;5712;48.858;9.206;2023-05-23T10:42:55;98175.53;;;19.90;64.36
11314;BME280;5712;48.858;9.206;2023-05-23T10:45:24;98172.94;;;20.06;64.11
11314;BME280;5712;48.858;9.206;2023-05-23T10:47:52;98166.25;;;20.18;62.98
11314;BME280;5712;48.858;9.206;2023-05-23T10:50:32;98170.28;;;20.14;63.23
11314;BME280;5712;48.858;9.206;2023-05-23T10:52:59;98168.28;;;20.24;62.77
11314;BME280;5712;48.858;9.206;2023-05-23T10:55:31;98163.25;;;20.13;61.77
11314;BME280;5712;48.858;9.206;2023-05-23T10:58:08;98168.59;;;20.13;62.65
11314;BME280;5712;48.858;9.206;2023-05-23T11:00:36;98167.41;;;20.16;62.01
11314;BME280;5712;48.858;9.206;2023-05-23T11:03:05;98159.19;;;20.09;61.71
11314;BME280;5712;48.858;9.206;2023-05-23T11:05:33;98163.78;;;20.41;61.21
11314;BME280;5712;48.858;9.206;2023-05-23T11:08:06;98155.22;;;20.45;60.42
11314;BME280;5712;48.858;9.206;2023-05-23T11:10:52;98169.66;;;20.52;60.75
11314;BME280;5712;48.858;9.206;2023-05-23T11:13:19;98170.16;;;20.56;60.33
11314;BME280;5712;48.858;9.206;2023-05-23T11:15:46;98154.53;;;20.27;59.22
11314;BME280;5712;48.858;9.206;2023-05-23T11:18:21;98168.63;;;20.29;60.24
11314;BME280;5712;48.858;9.206;2023-05-23T11:20:49;98166.94;;;20.28;59.47
11314;BME280;5712;48.858;9.206;2023-05-23T11:23:17;98166.25;;;20.18;59.70
11314;BME280;5712;48.858;9.206;2023-05-23T11:25:45;98165.22;;;20.11;59.91
11314;BME280;5712;48.858;9.206;2023-05-23T11:28:13;98177.53;;;20.38;60.62
11314;BME280;5712;48.858;9.206;2023-05-23T11:30:40;98168.31;;;20.64;59.23
11314;BME280;5712;48.858;9.206;2023-05-23T11:33:08;98177.06;;;20.82;59.07
11314;BME280;5712;48.858;9.206;2023-05-23T11:35:39;98171.31;;;20.85;59.76
11314;BME280;5712;48.858;9.206;2023-05-23T11:38:06;98167.13;;;20.51;60.22
11314;BME280;5712;48.858;9.206;2023-05-23T11:40:34;98186.59;;;20.37;61.61
11314;BME280;5712;48.858;9.206;2023-05-23T11:43:02;98199.66;;;20.40;62.42
11314;BME280;5712;48.858;9.206;2023-05-23T11:45:30;98194.19;;;20.57;61.63
11314;BME280;5712;48.858;9.206;2023-05-23T11:47:57;98178.69;;;20.27;61.61
11314;BME280;5712;48.858;9.206;2023-05-23T11:50:24;98191.59;;;20.32;62.03
11314;BME280;5712;48.858;9.206;2023-05-23T11:52:53;98182.75;;;20.47;61.59
11314;BME280;5712;48.858;9.206;2023-05-23T11:55:21;98184.28;;;20.66;61.38
11314;BME280;5712;48.858;9.206;2023-05-23T11:57:48;98184.28;;;20.98;60.40
11314;BME280;5712;48.858;9.206;2023-05-23T12:00:16;98160.94;;;20.98;58.56
11314;BME280;5712;48.858;9.206;2023-05-23T12:02:44;98170.00;;;20.97;58.60
11314;BME280;5712;48.858;9.206;2023-05-23T12:05:12;98159.44;;;21.04;57.81
11314;BME280;5712;48.858;9.206;2023-05-23T12:07:39;98157.06;;;21.09;57.60
11314;BME280;5712;48.858;9.206;2023-05-23T12:10:08;98145.44;;;21.16;56.98
11314;BME280;5712;48.858;9.206;2023-05-23T12:12:35;98150.97;;;21.39;56.93
11314;BME280;5712;48.858;9.206;2023-05-23T12:15:05;98128.19;;;21.57;55.30
11314;BME280;5712;48.858;9.206;2023-05-23T12:17:32;98117.25;;;21.59;54.86
11314;BME280;5712;48.858;9.206;2023-05-23T12:19:59;98136.25;;;21.57;55.59
11314;BME280;5712;48.858;9.206;2023-05-23T12:22:27;98134.53;;;21.64;56.48
11314;BME280;5712;48.858;9.206;2023-05-23T12:24:54;98118.47;;;21.87;54.61
11314;BME280;5712;48.858;9.206;2023-05-23T12:27:27;98124.56;;;21.81;54.97
11314;BME280;5712;48.858;9.206;2023-05-23T12:30:04;98119.41;;;21.63;54.80
11314;BME280;5712;48.858;9.206;2023-05-23T12:32:31;98123.00;;;21.48;55.51
11314;BME280;5712;48.858;9.206;2023-05-23T12:34:58;98125.06;;;21.38;55.33
11314;BME280;5712;48.858;9.206;2023-05-23T12:37:24;98136.69;;;21.22;55.97
11314;BME280;5712;48.858;9.206;2023-05-23T12:39:51;98126.00;;;21.06;56.49
11314;BME280;5712;48.858;9.206;2023-05-23T12:42:17;98136.06;;;21.12;57.06
11314;BME280;5712;48.858;9.206;2023-05-23T12:44:49;98144.09;;;21.20;57.55
11314;BME280;5712;48.858;9.206;2023-05-23T12:47:16;98136.59;;;21.08;57.40
11314;BME280;5712;48.858;9.206;2023-05-23T12:49:42;98135.41;;;21.02;57.90
11314;BME280;5712;48.858;9.206;2023-05-23T12:52:11;98123.16;;;21.08;56.87
11314;BME280;5712;48.858;9.206;2023-05-23T12:54:37;98112.53;;;21.14;56.21
11314;BME280;5712;48.858;9.206;2023-05-23T12:57:04;98111.44;;;21.39;55.57
11314;BME280;5712;48.858;9.206;2023-05-23T12:59:30;98115.38;;;21.59;56.27
11314;BME280;5712;48.858;9.206;2023-05-23T13:01:58;98113.00;;;21.64;55.83
11314;BME280;5712;48.858;9.206;2023-05-23T13:04:25;98111.72;;;21.60;55.37
11314;BME280;5712;48.858;9.206;2023-05-23T13:06:52;98109.47;;;21.25;55.92
11314;BME280;5712;48.858;9.206;2023-05-23T13:09:18;98119.28;;;21.02;56.73